createdAt,value
2023-05-03T00:01:15.291Z,10
2023-05-03T00:04:15.289Z,9.9
2023-05-03T00:07:15.285Z,9.9
2023-05-03T00:10:15.308Z,9.9
2023-05-03T00:13:15.292Z,9.9
2023-05-03T00:16:15.296Z,9.9
2023-05-03T00:22:15.285Z,9.9
2023-05-03T00:25:15.301Z,9.9
2023-05-03T00:31:15.311Z,9.9
2023-05-03T00:34:15.286Z,9.9
2023-05-03T00:37:15.277Z,9.9
2023-05-03T00:40:15.277Z,9.9
2023-05-03T00:43:15.275Z,9.9
2023-05-03T00:46:17.035Z,9.9
2023-05-03T00:49:15.282Z,9.9
2023-05-03T00:52:15.267Z,9.8
2023-05-03T00:55:15.268Z,9.8
2023-05-03T00:58:15.267Z,9.8
2023-05-03T01:01:15.321Z,9.8
2023-05-03T01:04:15.273Z,9.7
2023-05-03T01:07:15.283Z,9.7
2023-05-03T01:10:15.262Z,9.7
2023-05-03T01:13:15.257Z,9.7
2023-05-03T01:16:15.331Z,9.7
2023-05-03T01:19:15.255Z,9.7
2023-05-03T01:22:15.252Z,9.7
2023-05-03T01:25:15.255Z,9.6
2023-05-03T01:28:15.264Z,9.6
2023-05-03T01:31:15.269Z,9.6
2023-05-03T01:34:15.266Z,9.6
2023-05-03T01:37:15.270Z,9.5
2023-05-03T01:40:15.305Z,9.5
2023-05-03T01:43:15.264Z,9.4
2023-05-03T01:46:15.267Z,9.4
2023-05-03T01:49:15.286Z,9.4
2023-05-03T01:52:15.250Z,9.4
2023-05-03T01:55:15.272Z,9.3
2023-05-03T01:58:15.236Z,9.3
2023-05-03T02:01:15.299Z,9.3
2023-05-03T02:04:15.275Z,9.2
2023-05-03T02:07:15.253Z,9.1
2023-05-03T02:10:15.241Z,9.1
2023-05-03T02:13:15.239Z,9.1
2023-05-03T02:16:15.283Z,9.1
2023-05-03T02:19:15.273Z,9.1
2023-05-03T02:22:15.265Z,9.1
2023-05-03T02:25:15.251Z,9
2023-05-03T02:28:15.235Z,9
2023-05-03T02:31:15.298Z,9
2023-05-03T02:34:15.238Z,9
2023-05-03T02:37:15.229Z,9
2023-05-03T02:40:15.243Z,9
2023-05-03T02:43:15.230Z,9
2023-05-03T02:46:15.285Z,8.9
2023-05-03T02:49:15.224Z,8.9
2023-05-03T02:52:15.248Z,8.9
2023-05-03T02:55:15.232Z,8.9
2023-05-03T02:58:15.230Z,8.8
2023-05-03T03:01:15.237Z,8.8
2023-05-03T03:04:15.231Z,8.8
2023-05-03T03:07:15.220Z,8.7
2023-05-03T03:10:15.212Z,8.7
2023-05-03T03:13:15.213Z,8.7
2023-05-03T03:16:15.266Z,8.7
2023-05-03T03:19:15.230Z,8.7
2023-05-03T03:22:15.223Z,8.6
2023-05-03T03:25:15.220Z,8.6
2023-05-03T03:28:15.229Z,8.6
2023-05-03T03:31:15.234Z,8.6
2023-05-03T03:34:15.210Z,8.6
2023-05-03T03:37:15.207Z,8.5
2023-05-03T03:40:15.207Z,8.5
2023-05-03T03:43:15.199Z,8.5
2023-05-03T03:46:15.280Z,8.5
2023-05-03T03:49:15.203Z,8.5
2023-05-03T03:52:15.204Z,8.5
2023-05-03T03:55:15.198Z,8.5
2023-05-03T03:58:15.224Z,8.4
2023-05-03T04:01:15.230Z,8.4
2023-05-03T04:04:15.376Z,8.4
2023-05-03T04:07:15.253Z,8.4
2023-05-03T04:10:15.230Z,8.4
2023-05-03T04:13:15.227Z,8.5
2023-05-03T04:16:15.253Z,8.4
2023-05-03T04:19:15.571Z,8.4
2023-05-03T04:22:15.216Z,8.4
2023-05-03T04:28:15.234Z,8.4
2023-05-03T04:31:15.269Z,8.4
2023-05-03T04:34:15.210Z,8.4
2023-05-03T04:37:15.220Z,8.3
2023-05-03T04:40:15.223Z,8.3
2023-05-03T04:46:15.277Z,8.3
2023-05-03T04:49:15.205Z,8.3
2023-05-03T04:52:15.209Z,8.3
2023-05-03T04:55:15.207Z,8.3
2023-05-03T04:58:15.229Z,8.3
2023-05-03T05:01:15.212Z,8.3
2023-05-03T05:04:15.206Z,8.3
2023-05-03T05:07:15.210Z,8.3
2023-05-03T05:13:15.204Z,8.3
2023-05-03T05:16:15.233Z,8.3
2023-05-03T05:19:15.206Z,8.4
2023-05-03T05:22:15.216Z,8.4
2023-05-03T05:25:15.203Z,8.4
2023-05-03T05:28:15.205Z,8.4
2023-05-03T05:31:15.246Z,8.4
2023-05-03T05:34:15.193Z,8.4
2023-05-03T05:37:15.198Z,8.4
2023-05-03T05:40:15.217Z,8.4
2023-05-03T05:43:15.208Z,8.4
2023-05-03T05:46:15.221Z,8.5
2023-05-03T05:49:15.208Z,8.5
2023-05-03T05:52:17.209Z,8.5
2023-05-03T05:55:16.024Z,8.6
2023-05-03T05:58:15.973Z,8.6
2023-05-03T06:01:15.960Z,8.6
2023-05-03T06:04:15.958Z,8.7
2023-05-03T06:07:15.972Z,8.8
2023-05-03T06:10:15.957Z,8.8
2023-05-03T06:13:15.958Z,8.8
2023-05-03T06:16:15.986Z,8.8
2023-05-03T06:19:15.983Z,8.9
2023-05-03T06:22:15.965Z,8.9
2023-05-03T06:25:17.769Z,9
2023-05-03T06:28:15.949Z,9
2023-05-03T06:31:16.223Z,9.1
2023-05-03T06:37:15.968Z,9.2
2023-05-03T06:40:15.950Z,9.3
2023-05-03T06:43:15.952Z,9.3
2023-05-03T06:46:17.209Z,9.3
2023-05-03T06:49:15.943Z,9.4
2023-05-03T06:52:15.952Z,9.5
2023-05-03T06:58:15.953Z,9.6
2023-05-03T07:01:16.150Z,9.6
2023-05-03T07:04:16.066Z,9.6
2023-05-03T07:07:16.090Z,9.7
2023-05-03T07:10:15.947Z,9.7
2023-05-03T07:13:15.939Z,9.8
2023-05-03T07:16:15.992Z,9.8
2023-05-03T07:19:15.937Z,9.9
2023-05-03T07:22:15.954Z,9.9
2023-05-03T07:25:15.971Z,10
2023-05-03T07:31:15.954Z,10
2023-05-03T07:34:15.929Z,10.1
2023-05-03T07:37:15.928Z,10.1
2023-05-03T07:40:15.958Z,10.2
2023-05-03T07:43:15.932Z,10.3
2023-05-03T07:46:16.209Z,10.3
2023-05-03T07:49:15.936Z,10.3
2023-05-03T07:52:15.931Z,10.4
2023-05-03T07:55:16.000Z,10.4
2023-05-03T07:58:15.936Z,10.5
2023-05-03T08:01:16.061Z,10.5
2023-05-03T08:04:16.181Z,10.6
2023-05-03T08:07:15.914Z,10.6
2023-05-03T08:10:15.927Z,10.7
2023-05-03T08:13:15.930Z,10.7
2023-05-03T08:16:15.939Z,10.8
2023-05-03T08:19:15.917Z,10.8
2023-05-03T08:22:15.940Z,10.8
2023-05-03T08:28:15.925Z,10.9
2023-05-03T08:31:16.071Z,11
2023-05-03T08:34:15.908Z,11.1
2023-05-03T08:37:15.924Z,11.1
2023-05-03T08:40:15.919Z,11.2
2023-05-03T08:43:15.924Z,11.2
2023-05-03T08:46:16.102Z,11.2
2023-05-03T08:49:15.914Z,11.4
2023-05-03T08:52:15.923Z,11.5
2023-05-03T08:55:15.919Z,11.5
2023-05-03T08:58:15.897Z,11.6
2023-05-03T09:01:15.891Z,11.7
2023-05-03T09:04:16.009Z,11.8
2023-05-03T09:07:15.906Z,11.8
2023-05-03T09:10:15.898Z,11.9
2023-05-03T09:13:15.901Z,11.9
2023-05-03T09:16:15.959Z,12
2023-05-03T09:19:15.917Z,12.1
2023-05-03T09:22:15.916Z,12.2
2023-05-03T09:25:15.908Z,12.3
2023-05-03T09:28:15.901Z,12.3
2023-05-03T09:31:15.905Z,12.4
2023-05-03T09:34:15.886Z,12.4
2023-05-03T09:37:15.892Z,12.6
2023-05-03T09:40:15.890Z,12.6
2023-05-03T09:43:16.609Z,12.7
2023-05-03T09:46:16.140Z,12.8
2023-05-03T09:49:18.070Z,12.8
2023-05-03T09:52:15.879Z,13
2023-05-03T09:55:15.893Z,13
2023-05-03T09:58:15.878Z,13.1
2023-05-03T10:07:15.868Z,13.3
2023-05-03T10:10:15.870Z,13.4
2023-05-03T10:13:15.876Z,13.5
2023-05-03T10:16:15.964Z,13.5
2023-05-03T10:19:15.885Z,13.6
2023-05-03T10:22:15.907Z,13.7
2023-05-03T10:25:16.258Z,13.8
2023-05-03T10:28:15.880Z,13.9
2023-05-03T10:31:16.075Z,13.9
2023-05-03T10:34:15.871Z,14
2023-05-03T10:37:15.906Z,14
2023-05-03T10:40:15.885Z,14
2023-05-03T10:43:15.856Z,14.1
2023-05-03T10:46:15.923Z,14.2
2023-05-03T10:49:15.861Z,14.3
2023-05-03T10:52:15.858Z,14.3
2023-05-03T10:55:15.860Z,14.4
2023-05-03T10:58:15.850Z,14.5
2023-05-03T11:01:15.896Z,14.5
2023-05-03T11:04:15.880Z,14.6
2023-05-03T11:07:15.861Z,14.6
2023-05-03T11:10:15.879Z,14.7
2023-05-03T11:13:15.860Z,14.8
2023-05-03T11:16:16.146Z,14.9
2023-05-03T11:19:15.864Z,14.9
2023-05-03T11:22:15.874Z,15
2023-05-03T11:25:15.853Z,15
2023-05-03T11:28:15.862Z,15.1
2023-05-03T11:31:15.855Z,15.2
2023-05-03T11:34:15.840Z,15.2
2023-05-03T11:37:15.861Z,15.3
2023-05-03T11:40:15.851Z,15.3
2023-05-03T11:43:15.839Z,15.3
2023-05-03T11:46:15.916Z,15.3
2023-05-03T11:49:15.845Z,15.4
2023-05-03T11:52:15.839Z,15.5
2023-05-03T11:55:15.838Z,15.5
2023-05-03T11:58:15.828Z,15.6
2023-05-03T12:01:15.907Z,15.6
2023-05-03T12:04:15.988Z,15.8
2023-05-03T12:10:20.019Z,15.9
2023-05-03T12:13:17.436Z,15.9
2023-05-03T12:16:15.999Z,15.9
2023-05-03T12:19:16.372Z,16
2023-05-03T12:22:24.564Z,16
2023-05-03T12:25:16.273Z,16
2023-05-03T12:28:20.056Z,16.1
2023-05-03T12:31:17.734Z,16.1
2023-05-03T12:34:32.331Z,16.1
2023-05-03T12:37:17.110Z,16.1
2023-05-03T12:40:32.237Z,16.1
2023-05-03T12:43:15.914Z,16.1
2023-05-03T12:46:32.827Z,16.2
2023-05-03T12:49:16.134Z,16.2
2023-05-03T13:01:50.785Z,16.3
2023-05-03T13:07:16.242Z,16.4
2023-05-03T13:13:15.820Z,16.4
2023-05-03T13:19:15.833Z,16.5
2023-05-03T13:22:15.808Z,16.5
2023-05-03T13:25:15.837Z,16.5
2023-05-03T13:28:15.810Z,16.5
2023-05-03T13:31:15.840Z,16.6
2023-05-03T13:34:15.805Z,16.6
2023-05-03T13:37:15.820Z,16.7
2023-05-03T13:40:15.800Z,16.7
2023-05-03T13:43:15.804Z,16.8
2023-05-03T13:46:16.057Z,16.8
2023-05-03T13:49:15.809Z,16.8
2023-05-03T13:52:15.808Z,16.9
2023-05-03T13:55:15.844Z,16.9
2023-05-03T13:58:15.794Z,17
2023-05-03T14:01:15.849Z,17
2023-05-03T14:04:15.849Z,17
2023-05-03T14:07:15.795Z,17
2023-05-03T14:10:15.838Z,17
2023-05-03T14:13:15.836Z,17
2023-05-03T14:16:19.575Z,17
2023-05-03T14:19:15.797Z,17
2023-05-03T14:22:15.797Z,17
2023-05-03T14:25:15.861Z,17
2023-05-03T14:28:15.824Z,17
2023-05-03T14:31:16.193Z,17
2023-05-03T14:34:15.825Z,17
2023-05-03T14:37:15.826Z,17.1
2023-05-03T14:40:15.814Z,17.1
2023-05-03T14:43:15.793Z,17.1
2023-05-03T14:46:15.843Z,17.1
2023-05-03T14:49:15.810Z,17.1
2023-05-03T14:52:15.812Z,17.1
2023-05-03T14:55:15.809Z,17
2023-05-03T14:58:15.981Z,17
2023-05-03T15:01:15.914Z,17
2023-05-03T15:04:15.819Z,16.9
2023-05-03T15:07:15.817Z,16.9
2023-05-03T15:10:15.804Z,16.9
2023-05-03T15:13:16.274Z,16.9
2023-05-03T15:16:16.162Z,16.9
2023-05-03T15:19:15.804Z,16.9
2023-05-03T15:22:15.808Z,17
2023-05-03T15:25:15.798Z,16.9
2023-05-03T15:28:15.793Z,16.9
2023-05-03T15:31:15.842Z,16.8
2023-05-03T15:34:15.798Z,16.8
2023-05-03T15:37:15.790Z,16.8
2023-05-03T15:40:15.788Z,16.8
2023-05-03T15:43:15.775Z,16.8
2023-05-03T15:46:15.871Z,16.8
2023-05-03T15:49:15.783Z,16.8
2023-05-03T15:52:15.794Z,16.8
2023-05-03T15:58:15.835Z,16.7
2023-05-03T16:01:15.795Z,16.7
2023-05-03T16:04:15.787Z,16.7
2023-05-03T16:07:15.777Z,16.7
2023-05-03T16:10:15.818Z,16.7
2023-05-03T16:13:15.962Z,16.7
2023-05-03T16:16:15.865Z,16.7
2023-05-03T16:19:15.768Z,16.7
2023-05-03T16:25:15.792Z,16.6
2023-05-03T16:28:15.769Z,16.6
2023-05-03T16:31:15.797Z,16.6
2023-05-03T16:34:15.781Z,16.6
2023-05-03T16:37:15.763Z,16.6
2023-05-03T16:40:15.774Z,16.5
2023-05-03T16:43:15.894Z,16.5
2023-05-03T16:49:15.771Z,16.5
2023-05-03T16:52:15.777Z,16.4
2023-05-03T16:55:15.768Z,16.4
2023-05-03T16:58:15.751Z,16.4
2023-05-03T17:01:15.774Z,16.4
2023-05-03T17:04:15.766Z,16.3
2023-05-03T17:07:15.759Z,16.3
2023-05-03T17:10:15.769Z,16.3
2023-05-03T17:13:15.758Z,16.2
2023-05-03T17:16:15.803Z,16.2
2023-05-03T17:19:15.765Z,16.2
2023-05-03T17:22:15.771Z,16.2
2023-05-03T17:25:15.773Z,16.1
2023-05-03T17:28:16.069Z,16.1
2023-05-03T17:31:15.813Z,16.1
2023-05-03T17:34:15.765Z,16
2023-05-03T17:37:15.768Z,16
2023-05-03T17:40:15.795Z,16
2023-05-03T17:43:15.754Z,15.9
2023-05-03T17:46:15.794Z,15.9
2023-05-03T17:49:15.753Z,15.9
2023-05-03T17:52:15.783Z,15.8
2023-05-03T17:55:16.206Z,15.8
2023-05-03T17:58:15.754Z,15.8
2023-05-03T18:01:16.069Z,15.7
2023-05-03T18:04:15.755Z,15.7
2023-05-03T18:07:15.791Z,15.7
2023-05-03T18:10:15.772Z,15.6
2023-05-03T18:13:15.859Z,15.6
2023-05-03T18:16:15.804Z,15.5
2023-05-03T18:19:15.776Z,15.5
2023-05-03T18:22:15.758Z,15.4
2023-05-03T18:25:15.744Z,15.3
2023-05-03T18:28:15.740Z,15.3
2023-05-03T18:31:16.040Z,15.3
2023-05-03T18:34:15.741Z,15.2
2023-05-03T18:37:15.745Z,15.2
2023-05-03T18:40:15.737Z,15.2
2023-05-03T18:43:15.757Z,15.1
2023-05-03T18:46:15.940Z,15.1
2023-05-03T18:49:15.770Z,15
2023-05-03T18:52:15.785Z,15
2023-05-03T18:55:15.745Z,14.9
2023-05-03T18:58:15.759Z,14.9
2023-05-03T19:01:15.755Z,14.9
2023-05-03T19:04:15.753Z,14.8
2023-05-03T19:07:15.736Z,14.8
2023-05-03T19:10:15.772Z,14.7
2023-05-03T19:13:15.796Z,14.6
2023-05-03T19:16:16.000Z,14.6
2023-05-03T19:19:15.731Z,14.6
2023-05-03T19:22:15.728Z,14.5
2023-05-03T19:25:15.732Z,14.5
2023-05-03T19:28:15.723Z,14.4
2023-05-03T19:31:16.053Z,14.3
2023-05-03T19:34:15.728Z,14.3
2023-05-03T19:37:15.723Z,14.2
2023-05-03T19:40:15.753Z,14.2
2023-05-03T19:43:15.730Z,14.1
2023-05-03T19:46:15.785Z,14
2023-05-03T19:49:15.720Z,13.9
2023-05-03T19:52:15.733Z,13.9
2023-05-03T19:55:15.753Z,13.8
2023-05-03T19:58:15.764Z,13.8
2023-05-03T20:01:15.738Z,13.7
2023-05-03T20:04:15.858Z,13.6
2023-05-03T20:07:15.713Z,13.6
2023-05-03T20:10:15.746Z,13.5
2023-05-03T20:13:15.746Z,13.5
2023-05-03T20:16:15.734Z,13.4
2023-05-03T20:19:15.743Z,13.4
2023-05-03T20:22:15.708Z,13.3
2023-05-03T20:25:15.703Z,13.3
2023-05-03T20:28:15.703Z,13.3
2023-05-03T20:31:15.803Z,13.3
2023-05-03T20:34:15.727Z,13.2
2023-05-03T20:37:15.725Z,13.2
2023-05-03T20:40:15.712Z,13.2
2023-05-03T20:43:15.698Z,13.1
2023-05-03T20:46:15.951Z,13.1
2023-05-03T20:49:15.729Z,13.1
2023-05-03T20:52:15.711Z,13
2023-05-03T20:55:15.700Z,12.9
2023-05-03T20:58:15.717Z,12.9
2023-05-03T21:01:15.700Z,12.8
2023-05-03T21:04:15.719Z,12.8
2023-05-03T21:07:15.699Z,12.8
2023-05-03T21:10:15.693Z,12.7
2023-05-03T21:16:15.953Z,12.6
2023-05-03T21:19:15.695Z,12.6
2023-05-03T21:22:15.688Z,12.6
2023-05-03T21:25:15.703Z,12.5
2023-05-03T21:28:15.682Z,12.5
2023-05-03T21:31:15.817Z,12.4
2023-05-03T21:34:15.686Z,12.4
2023-05-03T21:37:15.698Z,12.4
2023-05-03T21:40:15.758Z,12.4
2023-05-03T21:43:15.719Z,12.3
2023-05-03T21:46:15.724Z,12.3
2023-05-03T21:49:15.708Z,12.3
2023-05-03T21:52:15.708Z,12.2
2023-05-03T21:55:15.719Z,12.1
2023-05-03T21:58:15.690Z,12.1
2023-05-03T22:01:16.021Z,12.1
2023-05-03T22:04:15.704Z,12.1
2023-05-03T22:07:15.707Z,12
2023-05-03T22:10:15.697Z,12
2023-05-03T22:13:15.760Z,12
2023-05-03T22:16:16.028Z,11.9
2023-05-03T22:19:15.697Z,11.9
2023-05-03T22:22:15.695Z,11.9
2023-05-03T22:25:15.735Z,11.8
2023-05-03T22:28:15.687Z,11.8
2023-05-03T22:31:15.701Z,11.8
2023-05-03T22:34:15.686Z,11.7
2023-05-03T22:37:15.700Z,11.7
2023-05-03T22:40:15.740Z,11.7
2023-05-03T22:46:15.795Z,11.6
2023-05-03T22:49:15.681Z,11.6
2023-05-03T22:52:15.689Z,11.5
2023-05-03T22:55:15.688Z,11.5
2023-05-03T22:58:15.672Z,11.5
2023-05-03T23:01:15.775Z,11.5
2023-05-03T23:04:15.686Z,11.4
2023-05-03T23:07:15.679Z,11.4
2023-05-03T23:10:15.674Z,11.4
2023-05-03T23:13:15.786Z,11.4
2023-05-03T23:16:15.721Z,11.3
2023-05-03T23:25:15.696Z,11.3
2023-05-03T23:28:15.674Z,11.2
2023-05-03T23:31:15.830Z,11.2
2023-05-03T23:34:15.669Z,11.2
2023-05-03T23:37:15.686Z,11.2
2023-05-03T23:40:15.652Z,11.1
2023-05-03T23:43:15.680Z,11.1
2023-05-03T23:46:16.064Z,11.1
2023-05-03T23:49:15.658Z,11.1
2023-05-03T23:52:15.653Z,11
2023-05-03T23:55:15.645Z,11
2023-05-03T23:58:15.666Z,11
